sensor_id;sensor_type;location;lat;lon;timestamp;pressure;altitude;pressure_sealevel;temperature;humidity
51999;BME280;38015;50.924;11.598;2023-02-04T00:02:27;100207.16;;;22.37;25.39
51999;BME280;38015;50.924;11.598;2023-02-04T00:04:58;100209.58;;;22.21;25.62
51999;BME280;38015;50.924;11.598;2023-02-04T00:07:28;100214.64;;;22.35;25.40
51999;BME280;38015;50.924;11.598;2023-02-04T00:10:00;100223.10;;;22.29;25.51
51999;BME280;38015;50.924;11.598;2023-02-04T00:12:29;100223.24;;;22.36;25.29
51999;BME280;38015;50.924;11.598;2023-02-04T00:15:00;100220.72;;;22.33;25.39
51999;BME280;38015;50.924;11.598;2023-02-04T00:17:30;100223.49;;;22.32;25.42
51999;BME280;38015;50.924;11.598;2023-02-04T00:20:01;100236.68;;;22.33;25.38
51999;BME280;38015;50.924;11.598;2023-02-04T00:22:31;100235.01;;;22.35;25.30
51999;BME280;38015;50.924;11.598;2023-02-04T00:25:02;100237.37;;;22.33;25.36
51999;BME280;38015;50.924;11.598;2023-02-04T00:27:32;100254.81;;;22.40;25.27
51999;BME280;38015;50.924;11.598;2023-02-04T00:30:05;100255.33;;;22.33;25.36
51999;BME280;38015;50.924;11.598;2023-02-04T00:32:33;100259.54;;;22.35;25.26
51999;BME280;38015;50.924;11.598;2023-02-04T00:35:04;100263.38;;;22.35;25.29
51999;BME280;38015;50.924;11.598;2023-02-04T00:37:34;100276.15;;;22.37;25.20
51999;BME280;38015;50.924;11.598;2023-02-04T00:40:05;100277.29;;;22.40;25.18
51999;BME280;38015;50.924;11.598;2023-02-04T00:42:35;100288.56;;;22.33;25.32
51999;BME280;38015;50.924;11.598;2023-02-04T00:45:07;100291.53;;;22.30;25.35
51999;BME280;38015;50.924;11.598;2023-02-04T00:47:36;100298.54;;;22.33;25.30
51999;BME280;38015;50.924;11.598;2023-02-04T00:50:07;100301.05;;;22.32;25.31
51999;BME280;38015;50.924;11.598;2023-02-04T00:52:38;100301.19;;;22.26;25.35
51999;BME280;38015;50.924;11.598;2023-02-04T00:55:07;100310.67;;;22.29;25.32
51999;BME280;38015;50.924;11.598;2023-02-04T00:57:38;100317.83;;;22.36;25.27
51999;BME280;38015;50.924;11.598;2023-02-04T01:00:09;100322.79;;;22.28;25.34
51999;BME280;38015;50.924;11.598;2023-02-04T01:02:39;100319.40;;;22.36;25.15
51999;BME280;38015;50.924;11.598;2023-02-04T01:05:11;100329.01;;;22.37;25.16
51999;BME280;38015;50.924;11.598;2023-02-04T01:07:40;100331.80;;;22.26;25.32
51999;BME280;38015;50.924;11.598;2023-02-04T01:10:10;100331.39;;;22.27;25.33
51999;BME280;38015;50.924;11.598;2023-02-04T01:12:40;100331.52;;;22.24;25.33
51999;BME280;38015;50.924;11.598;2023-02-04T01:15:11;100339.01;;;22.31;25.24
51999;BME280;38015;50.924;11.598;2023-02-04T01:17:42;100347.79;;;22.34;25.19
51999;BME280;38015;50.924;11.598;2023-02-04T01:20:12;100355.83;;;22.37;25.14
51999;BME280;38015;50.924;11.598;2023-02-04T01:22:42;100392.64;;;22.38;25.18
51999;BME280;38015;50.924;11.598;2023-02-04T01:25:15;100424.05;;;22.29;25.38
51999;BME280;38015;50.924;11.598;2023-02-04T01:27:44;100444.87;;;22.37;25.23
51999;BME280;38015;50.924;11.598;2023-02-04T01:30:15;100451.35;;;22.28;25.37
51999;BME280;38015;50.924;11.598;2023-02-04T01:32:44;100460.49;;;22.26;25.43
51999;BME280;38015;50.924;11.598;2023-02-04T01:35:15;100466.68;;;22.34;25.30
51999;BME280;38015;50.924;11.598;2023-02-04T01:37:45;100468.11;;;22.42;25.29
51999;BME280;38015;50.924;11.598;2023-02-04T01:40:16;100477.75;;;22.42;25.21
51999;BME280;38015;50.924;11.598;2023-02-04T01:42:46;100485.16;;;22.41;25.27
51999;BME280;38015;50.924;11.598;2023-02-04T01:45:17;100489.32;;;22.39;25.26
51999;BME280;38015;50.924;11.598;2023-02-04T01:47:47;100496.83;;;22.36;25.33
51999;BME280;38015;50.924;11.598;2023-02-04T01:50:18;100501.43;;;22.39;25.30
51999;BME280;38015;50.924;11.598;2023-02-04T01:52:48;100507.34;;;22.30;25.40
51999;BME280;38015;50.924;11.598;2023-02-04T01:55:23;100512.39;;;22.37;25.29
51999;BME280;38015;50.924;11.598;2023-02-04T01:57:49;100519.71;;;22.41;25.24
51999;BME280;38015;50.924;11.598;2023-02-04T02:00:23;100525.73;;;22.35;25.34
51999;BME280;38015;50.924;11.598;2023-02-04T02:02:51;100532.80;;;22.38;25.27
51999;BME280;38015;50.924;11.598;2023-02-04T02:05:24;100537.66;;;22.47;25.16
51999;BME280;38015;50.924;11.598;2023-02-04T02:07:53;100549.03;;;22.44;25.20
51999;BME280;38015;50.924;11.598;2023-02-04T02:10:22;100557.48;;;22.37;25.32
51999;BME280;38015;50.924;11.598;2023-02-04T02:12:53;100558.31;;;22.43;25.24
51999;BME280;38015;50.924;11.598;2023-02-04T02:15:23;100568.11;;;22.39;25.29
51999;BME280;38015;50.924;11.598;2023-02-04T02:17:53;100579.07;;;22.38;25.32
51999;BME280;38015;50.924;11.598;2023-02-04T02:20:24;100588.01;;;22.38;25.31
51999;BME280;38015;50.924;11.598;2023-02-04T02:23:03;100590.77;;;22.34;25.38
51999;BME280;38015;50.924;11.598;2023-02-04T02:25:24;100595.70;;;22.35;25.36
51999;BME280;38015;50.924;11.598;2023-02-04T02:27:56;100597.45;;;22.36;25.34
51999;BME280;38015;50.924;11.598;2023-02-04T02:30:26;100598.55;;;22.26;25.51
51999;BME280;38015;50.924;11.598;2023-02-04T02:32:56;100608.64;;;22.32;25.40
51999;BME280;38015;50.924;11.598;2023-02-04T02:35:26;100619.10;;;22.39;25.28
51999;BME280;38015;50.924;11.598;2023-02-04T02:37:56;100626.41;;;22.37;25.29
51999;BME280;38015;50.924;11.598;2023-02-04T02:40:27;100633.03;;;22.33;25.37
51999;BME280;38015;50.924;11.598;2023-02-04T02:42:57;100637.82;;;22.31;25.43
51999;BME280;38015;50.924;11.598;2023-02-04T02:45:30;100642.03;;;22.46;25.17
51999;BME280;38015;50.924;11.598;2023-02-04T02:48:00;100642.84;;;22.32;25.37
51999;BME280;38015;50.924;11.598;2023-02-04T02:50:30;100644.81;;;22.37;25.28
51999;BME280;38015;50.924;11.598;2023-02-04T02:53:01;100652.22;;;22.26;25.49
51999;BME280;38015;50.924;11.598;2023-02-04T02:55:30;100656.09;;;22.23;25.54
51999;BME280;38015;50.924;11.598;2023-02-04T02:58:00;100657.19;;;22.31;25.42
51999;BME280;38015;50.924;11.598;2023-02-04T03:00:31;100666.09;;;22.29;25.44
51999;BME280;38015;50.924;11.598;2023-02-04T03:03:06;100667.96;;;22.28;25.48
51999;BME280;38015;50.924;11.598;2023-02-04T03:05:36;100667.68;;;22.30;25.43
51999;BME280;38015;50.924;11.598;2023-02-04T03:08:04;100671.81;;;22.28;25.51
51999;BME280;38015;50.924;11.598;2023-02-04T03:10:33;100675.27;;;22.28;25.48
51999;BME280;38015;50.924;11.598;2023-02-04T03:13:05;100675.74;;;22.25;25.55
51999;BME280;38015;50.924;11.598;2023-02-04T03:15:34;100676.11;;;22.21;25.60
51999;BME280;38015;50.924;11.598;2023-02-04T03:18:04;100685.16;;;22.22;25.59
51999;BME280;38015;50.924;11.598;2023-02-04T03:20:35;100693.05;;;22.20;25.62
51999;BME280;38015;50.924;11.598;2023-02-04T03:23:05;100695.00;;;22.30;25.48
51999;BME280;38015;50.924;11.598;2023-02-04T03:25:35;100690.40;;;22.29;25.47
51999;BME280;38015;50.924;11.598;2023-02-04T03:28:06;100695.40;;;22.29;25.46
51999;BME280;38015;50.924;11.598;2023-02-04T03:30:37;100705.59;;;22.29;25.44
51999;BME280;38015;50.924;11.598;2023-02-04T03:33:07;100708.71;;;22.20;25.58
51999;BME280;38015;50.924;11.598;2023-02-04T03:35:37;100712.74;;;22.28;25.50
51999;BME280;38015;50.924;11.598;2023-02-04T03:38:08;100722.30;;;22.26;25.51
51999;BME280;38015;50.924;11.598;2023-02-04T03:40:38;100734.78;;;22.24;25.63
51999;BME280;38015;50.924;11.598;2023-02-04T03:43:09;100746.15;;;22.17;25.68
51999;BME280;38015;50.924;11.598;2023-02-04T03:45:39;100745.82;;;22.23;25.64
51999;BME280;38015;50.924;11.598;2023-02-04T03:48:10;100755.90;;;22.18;25.68
51999;BME280;38015;50.924;11.598;2023-02-04T03:50:40;100762.35;;;22.17;25.71
51999;BME280;38015;50.924;11.598;2023-02-04T03:53:12;100768.51;;;22.21;25.63
51999;BME280;38015;50.924;11.598;2023-02-04T03:55:41;100780.86;;;22.20;25.63
51999;BME280;38015;50.924;11.598;2023-02-04T03:58:11;100788.97;;;22.36;25.38
51999;BME280;38015;50.924;11.598;2023-02-04T04:00:42;100793.57;;;22.32;25.46
51999;BME280;38015;50.924;11.598;2023-02-04T04:03:12;100797.26;;;22.33;25.45
51999;BME280;38015;50.924;11.598;2023-02-04T04:05:43;100803.58;;;22.30;25.48
51999;BME280;38015;50.924;11.598;2023-02-04T04:08:13;100808.40;;;22.22;25.60
51999;BME280;38015;50.924;11.598;2023-02-04T04:10:44;100811.65;;;22.24;25.55
51999;BME280;38015;50.924;11.598;2023-02-04T04:13:14;100817.03;;;22.26;25.54
51999;BME280;38015;50.924;11.598;2023-02-04T04:15:45;100821.29;;;22.21;25.61
51999;BME280;38015;50.924;11.598;2023-02-04T04:18:15;100821.68;;;22.28;25.50
51999;BME280;38015;50.924;11.598;2023-02-04T04:20:48;100826.68;;;22.12;25.76
51999;BME280;38015;50.924;11.598;2023-02-04T04:23:16;100836.05;;;22.16;25.71
51999;BME280;38015;50.924;11.598;2023-02-04T04:25:47;100844.58;;;22.16;25.69
51999;BME280;38015;50.924;11.598;2023-02-04T04:28:17;100853.89;;;22.20;25.69
51999;BME280;38015;50.924;11.598;2023-02-04T04:30:48;100860.65;;;22.18;25.63
51999;BME280;38015;50.924;11.598;2023-02-04T04:33:18;100861.85;;;22.22;25.57
51999;BME280;38015;50.924;11.598;2023-02-04T04:35:51;100865.42;;;22.18;25.64
51999;BME280;38015;50.924;11.598;2023-02-04T04:38:19;100873.20;;;22.21;25.64
51999;BME280;38015;50.924;11.598;2023-02-04T04:40:50;100878.34;;;22.21;25.59
51999;BME280;38015;50.924;11.598;2023-02-04T04:43:22;100882.60;;;22.21;25.59
51999;BME280;38015;50.924;11.598;2023-02-04T04:45:51;100890.14;;;22.26;25.49
51999;BME280;38015;50.924;11.598;2023-02-04T04:48:22;100897.23;;;22.28;25.46
51999;BME280;38015;50.924;11.598;2023-02-04T04:50:51;100897.90;;;22.23;25.53
51999;BME280;38015;50.924;11.598;2023-02-04T04:53:23;100907.74;;;22.20;25.59
51999;BME280;38015;50.924;11.598;2023-02-04T04:55:52;100914.43;;;22.21;25.57
51999;BME280;38015;50.924;11.598;2023-02-04T04:58:23;100916.37;;;22.29;25.43
51999;BME280;38015;50.924;11.598;2023-02-04T05:00:53;100924.94;;;22.23;25.54
51999;BME280;38015;50.924;11.598;2023-02-04T05:03:24;100933.65;;;22.29;25.42
51999;BME280;38015;50.924;11.598;2023-02-04T05:05:54;100938.27;;;22.26;25.47
51999;BME280;38015;50.924;11.598;2023-02-04T05:08:25;100947.06;;;22.28;25.43
51999;BME280;38015;50.924;11.598;2023-02-04T05:10:55;100953.54;;;22.23;25.51
51999;BME280;38015;50.924;11.598;2023-02-04T05:13:26;100961.40;;;22.21;25.57
51999;BME280;38015;50.924;11.598;2023-02-04T05:15:56;100964.57;;;22.17;25.64
51999;BME280;38015;50.924;11.598;2023-02-04T05:18:27;100964.59;;;22.18;25.58
51999;BME280;38015;50.924;11.598;2023-02-04T05:20:57;100961.00;;;22.18;25.58
51999;BME280;38015;50.924;11.598;2023-02-04T05:23:28;100959.62;;;22.18;25.59
51999;BME280;38015;50.924;11.598;2023-02-04T05:25:58;100958.13;;;22.22;25.51
51999;BME280;38015;50.924;11.598;2023-02-04T05:28:29;100954.35;;;22.23;25.51
51999;BME280;38015;50.924;11.598;2023-02-04T05:30:59;100960.30;;;22.17;25.60
51999;BME280;38015;50.924;11.598;2023-02-04T05:33:30;100957.99;;;22.19;25.57
51999;BME280;38015;50.924;11.598;2023-02-04T05:36:00;100959.73;;;22.19;25.58
51999;BME280;38015;50.924;11.598;2023-02-04T05:38:31;100970.41;;;22.23;25.54
51999;BME280;38015;50.924;11.598;2023-02-04T05:41:01;100978.31;;;22.19;25.57
51999;BME280;38015;50.924;11.598;2023-02-04T05:43:31;100982.03;;;22.32;25.41
51999;BME280;38015;50.924;11.598;2023-02-04T05:46:02;100989.70;;;22.15;25.79
51999;BME280;38015;50.924;11.598;2023-02-04T05:48:32;100992.67;;;22.15;25.65
51999;BME280;38015;50.924;11.598;2023-02-04T05:51:03;100997.31;;;22.16;25.68
51999;BME280;38015;50.924;11.598;2023-02-04T05:53:33;101003.92;;;22.21;25.63
51999;BME280;38015;50.924;11.598;2023-02-04T05:56:04;101008.07;;;22.16;25.65
51999;BME280;38015;50.924;11.598;2023-02-04T05:58:34;101012.92;;;22.19;25.57
51999;BME280;38015;50.924;11.598;2023-02-04T06:01:05;101016.15;;;22.15;25.63
51999;BME280;38015;50.924;11.598;2023-02-04T06:03:35;101021.68;;;22.10;25.71
51999;BME280;38015;50.924;11.598;2023-02-04T06:06:06;101025.96;;;22.22;25.53
51999;BME280;38015;50.924;11.598;2023-02-04T06:08:36;101033.22;;;22.21;25.53
51999;BME280;38015;50.924;11.598;2023-02-04T06:11:06;101043.87;;;22.16;25.59
51999;BME280;38015;50.924;11.598;2023-02-04T06:13:37;101054.33;;;22.16;25.58
51999;BME280;38015;50.924;11.598;2023-02-04T06:16:07;101060.59;;;22.15;25.59
51999;BME280;38015;50.924;11.598;2023-02-04T06:18:38;101065.94;;;22.16;25.57
51999;BME280;38015;50.924;11.598;2023-02-04T06:21:08;101069.13;;;22.19;25.57
51999;BME280;38015;50.924;11.598;2023-02-04T06:23:39;101073.47;;;22.18;25.56
51999;BME280;38015;50.924;11.598;2023-02-04T06:26:10;101075.76;;;22.17;25.56
51999;BME280;38015;50.924;11.598;2023-02-04T06:28:40;101077.41;;;22.21;25.48
51999;BME280;38015;50.924;11.598;2023-02-04T06:31:10;101079.51;;;22.17;25.51
51999;BME280;38015;50.924;11.598;2023-02-04T06:33:41;101083.05;;;22.07;25.68
51999;BME280;38015;50.924;11.598;2023-02-04T06:36:11;101084.99;;;22.23;25.42
51999;BME280;38015;50.924;11.598;2023-02-04T06:38:42;101084.26;;;22.16;25.52
51999;BME280;38015;50.924;11.598;2023-02-04T06:41:12;101087.92;;;22.15;25.52
51999;BME280;38015;50.924;11.598;2023-02-04T06:43:43;101090.93;;;22.17;25.49
51999;BME280;38015;50.924;11.598;2023-02-04T06:46:13;101094.12;;;22.17;25.49
51999;BME280;38015;50.924;11.598;2023-02-04T06:48:44;101100.25;;;22.16;25.49
51999;BME280;38015;50.924;11.598;2023-02-04T06:51:14;101105.47;;;22.14;25.52
51999;BME280;38015;50.924;11.598;2023-02-04T06:53:45;101106.22;;;22.13;25.53
51999;BME280;38015;50.924;11.598;2023-02-04T06:56:15;101109.35;;;22.12;25.55
51999;BME280;38015;50.924;11.598;2023-02-04T06:58:46;101117.98;;;22.12;25.55
51999;BME280;38015;50.924;11.598;2023-02-04T07:01:16;101117.89;;;22.12;25.54
51999;BME280;38015;50.924;11.598;2023-02-04T07:03:46;101119.24;;;22.15;25.49
51999;BME280;38015;50.924;11.598;2023-02-04T07:06:17;101127.76;;;22.16;25.48
51999;BME280;38015;50.924;11.598;2023-02-04T07:08:47;101134.86;;;22.15;25.49
51999;BME280;38015;50.924;11.598;2023-02-04T07:11:18;101143.36;;;22.16;25.46
51999;BME280;38015;50.924;11.598;2023-02-04T07:13:48;101150.09;;;22.12;25.54
51999;BME280;38015;50.924;11.598;2023-02-04T07:16:19;101159.48;;;22.13;25.51
51999;BME280;38015;50.924;11.598;2023-02-04T07:18:49;101167.50;;;22.08;25.59
51999;BME280;38015;50.924;11.598;2023-02-04T07:21:20;101171.16;;;22.20;25.40
51999;BME280;38015;50.924;11.598;2023-02-04T07:23:50;101178.94;;;22.14;25.49
51999;BME280;38015;50.924;11.598;2023-02-04T07:26:22;101177.67;;;22.15;25.48
51999;BME280;38015;50.924;11.598;2023-02-04T07:28:51;101179.66;;;22.13;25.50
51999;BME280;38015;50.924;11.598;2023-02-04T07:31:22;101184.92;;;22.15;25.48
51999;BME280;38015;50.924;11.598;2023-02-04T07:33:54;101193.16;;;22.14;25.47
51999;BME280;38015;50.924;11.598;2023-02-04T07:36:23;101196.76;;;22.15;25.45
51999;BME280;38015;50.924;11.598;2023-02-04T07:38:53;101200.35;;;22.15;25.47
51999;BME280;38015;50.924;11.598;2023-02-04T07:41:24;101202.93;;;22.15;25.50
51999;BME280;38015;50.924;11.598;2023-02-04T07:43:54;101206.30;;;22.22;25.36
51999;BME280;38015;50.924;11.598;2023-02-04T07:46:25;101204.35;;;22.20;25.37
51999;BME280;38015;50.924;11.598;2023-02-04T07:48:55;101207.70;;;22.21;25.39
51999;BME280;38015;50.924;11.598;2023-02-04T07:51:26;101206.20;;;22.11;25.52
51999;BME280;38015;50.924;11.598;2023-02-04T07:53:56;101210.59;;;22.17;25.43
51999;BME280;38015;50.924;11.598;2023-02-04T07:56:26;101211.58;;;22.12;25.57
51999;BME280;38015;50.924;11.598;2023-02-04T07:58:57;101216.25;;;22.17;25.42
51999;BME280;38015;50.924;11.598;2023-02-04T08:01:27;101223.10;;;22.04;25.63
51999;BME280;38015;50.924;11.598;2023-02-04T08:03:58;101226.76;;;22.15;25.44
51999;BME280;38015;50.924;11.598;2023-02-04T08:06:28;101230.54;;;22.18;25.40
51999;BME280;38015;50.924;11.598;2023-02-04T08:09:00;101235.51;;;22.12;25.50
51999;BME280;38015;50.924;11.598;2023-02-04T08:11:29;101239.73;;;22.13;25.46
51999;BME280;38015;50.924;11.598;2023-02-04T08:14:00;101247.17;;;22.19;25.37
51999;BME280;38015;50.924;11.598;2023-02-04T08:16:30;101248.26;;;22.13;25.47
51999;BME280;38015;50.924;11.598;2023-02-04T08:19:01;101248.68;;;22.15;25.45
51999;BME280;38015;50.924;11.598;2023-02-04T08:21:33;101250.57;;;22.19;25.37
51999;BME280;38015;50.924;11.598;2023-02-04T08:24:02;101251.22;;;22.12;25.48
51999;BME280;38015;50.924;11.598;2023-02-04T08:26:32;101252.25;;;22.10;25.50
51999;BME280;38015;50.924;11.598;2023-02-04T08:29:03;101254.52;;;22.14;25.43
51999;BME280;38015;50.924;11.598;2023-02-04T08:31:33;101258.04;;;22.14;25.43
51999;BME280;38015;50.924;11.598;2023-02-04T08:34:05;101259.08;;;22.01;25.65
51999;BME280;38015;50.924;11.598;2023-02-04T08:36:36;101265.61;;;22.20;25.33
51999;BME280;38015;50.924;11.598;2023-02-04T08:39:05;101274.63;;;22.17;25.36
51999;BME280;38015;50.924;11.598;2023-02-04T08:41:35;101283.05;;;22.18;25.34
51999;BME280;38015;50.924;11.598;2023-02-04T08:44:06;101285.22;;;22.18;25.36
51999;BME280;38015;50.924;11.598;2023-02-04T08:46:36;101289.44;;;22.21;25.32
51999;BME280;38015;50.924;11.598;2023-02-04T08:49:06;101293.26;;;22.19;25.33
51999;BME280;38015;50.924;11.598;2023-02-04T08:51:39;101299.27;;;22.26;25.23
51999;BME280;38015;50.924;11.598;2023-02-04T08:54:07;101303.97;;;22.15;25.39
51999;BME280;38015;50.924;11.598;2023-02-04T08:56:38;101311.00;;;22.21;25.34
51999;BME280;38015;50.924;11.598;2023-02-04T08:59:08;101316.01;;;22.27;25.22
51999;BME280;38015;50.924;11.598;2023-02-04T09:01:39;101319.67;;;22.26;25.22
51999;BME280;38015;50.924;11.598;2023-02-04T09:04:09;101321.29;;;22.14;25.42
51999;BME280;38015;50.924;11.598;2023-02-04T09:06:40;101324.23;;;22.18;25.36
51999;BME280;38015;50.924;11.598;2023-02-04T09:09:10;101329.73;;;22.27;25.28
51999;BME280;38015;50.924;11.598;2023-02-04T09:11:41;101337.09;;;22.24;25.29
51999;BME280;38015;50.924;11.598;2023-02-04T09:14:11;101338.39;;;22.15;25.39
51999;BME280;38015;50.924;11.598;2023-02-04T09:16:42;101339.48;;;22.21;25.32
51999;BME280;38015;50.924;11.598;2023-02-04T09:19:12;101343.42;;;22.21;25.33
51999;BME280;38015;50.924;11.598;2023-02-04T09:21:43;101349.33;;;22.17;25.37
51999;BME280;38015;50.924;11.598;2023-02-04T09:24:13;101354.07;;;22.15;25.44
51999;BME280;38015;50.924;11.598;2023-02-04T09:26:44;101357.38;;;22.16;25.39
51999;BME280;38015;50.924;11.598;2023-02-04T09:29:14;101362.01;;;22.18;25.35
51999;BME280;38015;50.924;11.598;2023-02-04T09:31:45;101361.65;;;22.19;25.34
51999;BME280;38015;50.924;11.598;2023-02-04T09:34:15;101367.72;;;22.25;25.28
51999;BME280;38015;50.924;11.598;2023-02-04T09:36:46;101366.82;;;22.20;25.36
51999;BME280;38015;50.924;11.598;2023-02-04T09:39:16;101372.25;;;22.24;25.27
51999;BME280;38015;50.924;11.598;2023-02-04T09:41:47;101371.39;;;22.23;25.27
51999;BME280;38015;50.924;11.598;2023-02-04T09:44:20;101373.28;;;22.28;25.18
51999;BME280;38015;50.924;11.598;2023-02-04T09:46:49;101377.05;;;22.14;25.38
51999;BME280;38015;50.924;11.598;2023-02-04T09:49:18;101378.56;;;22.25;25.21
51999;BME280;38015;50.924;11.598;2023-02-04T09:51:49;101381.18;;;22.12;25.39
51999;BME280;38015;50.924;11.598;2023-02-04T09:54:21;101384.47;;;22.22;25.23
51999;BME280;38015;50.924;11.598;2023-02-04T09:56:51;101389.22;;;22.17;25.31
51999;BME280;38015;50.924;11.598;2023-02-04T09:59:22;101395.99;;;22.21;25.26
51999;BME280;38015;50.924;11.598;2023-02-04T10:01:56;101399.89;;;22.19;25.29
51999;BME280;38015;50.924;11.598;2023-02-04T10:04:21;101407.43;;;22.27;25.17
51999;BME280;38015;50.924;11.598;2023-02-04T10:06:55;101409.39;;;22.25;25.17
51999;BME280;38015;50.924;11.598;2023-02-04T10:09:22;101411.62;;;22.28;25.13
51999;BME280;38015;50.924;11.598;2023-02-04T10:11:52;101410.93;;;22.23;25.22
51999;BME280;38015;50.924;11.598;2023-02-04T10:14:23;101410.59;;;22.24;25.19
51999;BME280;38015;50.924;11.598;2023-02-04T10:16:55;101411.18;;;22.18;25.30
51999;BME280;38015;50.924;11.598;2023-02-04T10:19:24;101410.18;;;22.24;25.21
51999;BME280;38015;50.924;11.598;2023-02-04T10:21:54;101409.02;;;22.25;25.16
51999;BME280;38015;50.924;11.598;2023-02-04T10:24:26;101407.79;;;22.28;25.11
51999;BME280;38015;50.924;11.598;2023-02-04T10:29:25;101408.17;;;22.25;25.18
51999;BME280;38015;50.924;11.598;2023-02-04T10:31:56;101409.50;;;22.28;25.14
51999;BME280;38015;50.924;11.598;2023-02-04T10:34:33;101413.83;;;22.26;25.16
51999;BME280;38015;50.924;11.598;2023-02-04T10:36:57;101417.30;;;22.22;25.23
51999;BME280;38015;50.924;11.598;2023-02-04T10:39:29;101415.58;;;22.22;25.20
51999;BME280;38015;50.924;11.598;2023-02-04T10:42:00;101414.14;;;22.17;25.29
51999;BME280;38015;50.924;11.598;2023-02-04T10:44:32;101418.64;;;22.23;25.20
51999;BME280;38015;50.924;11.598;2023-02-04T10:46:59;101418.44;;;22.21;25.22
51999;BME280;38015;50.924;11.598;2023-02-04T10:49:30;101418.25;;;22.18;25.26
51999;BME280;38015;50.924;11.598;2023-02-04T10:52:01;101418.03;;;22.29;25.11
51999;BME280;38015;50.924;11.598;2023-02-04T10:54:36;101414.46;;;22.28;25.11
51999;BME280;38015;50.924;11.598;2023-02-04T10:57:10;101414.82;;;22.25;25.17
51999;BME280;38015;50.924;11.598;2023-02-04T10:59:31;101414.54;;;22.20;25.25
51999;BME280;38015;50.924;11.598;2023-02-04T11:04:33;101413.77;;;22.23;25.17
51999;BME280;38015;50.924;11.598;2023-02-04T11:07:03;101412.18;;;22.22;25.20
51999;BME280;38015;50.924;11.598;2023-02-04T11:09:33;101411.92;;;22.23;25.20
51999;BME280;38015;50.924;11.598;2023-02-04T11:12:04;101410.41;;;22.26;25.13
51999;BME280;38015;50.924;11.598;2023-02-04T11:14:34;101412.02;;;22.28;25.10
51999;BME280;38015;50.924;11.598;2023-02-04T11:17:06;101414.04;;;22.30;25.06
51999;BME280;38015;50.924;11.598;2023-02-04T11:19:37;101420.04;;;22.26;25.14
51999;BME280;38015;50.924;11.598;2023-02-04T11:24:36;101420.28;;;22.29;25.08
51999;BME280;38015;50.924;11.598;2023-02-04T11:29:39;101421.44;;;22.25;25.13
51999;BME280;38015;50.924;11.598;2023-02-04T11:34:45;101425.73;;;22.31;25.03
51999;BME280;38015;50.924;11.598;2023-02-04T11:37:15;101429.52;;;22.34;24.99
51999;BME280;38015;50.924;11.598;2023-02-04T11:39:41;101432.10;;;22.29;25.07
51999;BME280;38015;50.924;11.598;2023-02-04T11:42:19;101439.37;;;22.26;25.11
51999;BME280;38015;50.924;11.598;2023-02-04T11:44:40;101438.10;;;22.32;25.00
51999;BME280;38015;50.924;11.598;2023-02-04T11:47:12;101435.91;;;22.31;25.03
51999;BME280;38015;50.924;11.598;2023-02-04T11:49:41;101440.73;;;22.25;25.12
51999;BME280;38015;50.924;11.598;2023-02-04T11:52:13;101437.26;;;22.25;25.13
51999;BME280;38015;50.924;11.598;2023-02-04T11:54:42;101436.05;;;22.30;25.04
51999;BME280;38015;50.924;11.598;2023-02-04T11:57:12;101436.06;;;22.17;25.24
51999;BME280;38015;50.924;11.598;2023-02-04T11:59:43;101433.99;;;22.28;25.07
51999;BME280;38015;50.924;11.598;2023-02-04T12:02:15;101440.16;;;22.22;25.15
51999;BME280;38015;50.924;11.598;2023-02-04T12:04:50;101437.43;;;22.27;25.07
51999;BME280;38015;50.924;11.598;2023-02-04T12:07:23;101438.81;;;22.28;25.06
51999;BME280;38015;50.924;11.598;2023-02-04T12:09:47;101439.81;;;22.30;25.09
51999;BME280;38015;50.924;11.598;2023-02-04T12:12:22;101438.45;;;22.31;24.99
51999;BME280;38015;50.924;11.598;2023-02-04T12:17:17;101442.60;;;22.34;24.94
51999;BME280;38015;50.924;11.598;2023-02-04T12:19:47;101441.52;;;22.23;25.10
51999;BME280;38015;50.924;11.598;2023-02-04T12:22:17;101440.26;;;22.30;24.99
51999;BME280;38015;50.924;11.598;2023-02-04T12:24:48;101441.29;;;22.29;25.01
51999;BME280;38015;50.924;11.598;2023-02-04T12:27:18;101443.14;;;22.23;25.08
51999;BME280;38015;50.924;11.598;2023-02-04T12:29:48;101437.05;;;22.32;24.93
51999;BME280;38015;50.924;11.598;2023-02-04T12:32:21;101440.14;;;22.34;24.91
51999;BME280;38015;50.924;11.598;2023-02-04T12:34:49;101437.75;;;22.27;25.03
51999;BME280;38015;50.924;11.598;2023-02-04T12:37:20;101440.10;;;22.29;24.96
51999;BME280;38015;50.924;11.598;2023-02-04T12:39:50;101449.18;;;22.25;25.04
51999;BME280;38015;50.924;11.598;2023-02-04T12:42:21;101451.40;;;22.27;25.00
51999;BME280;38015;50.924;11.598;2023-02-04T12:44:51;101453.85;;;22.26;25.01
51999;BME280;38015;50.924;11.598;2023-02-04T12:47:22;101451.53;;;22.26;25.00
51999;BME280;38015;50.924;11.598;2023-02-04T12:49:52;101452.65;;;22.23;25.04
51999;BME280;38015;50.924;11.598;2023-02-04T12:52:23;101453.93;;;22.23;25.06
51999;BME280;38015;50.924;11.598;2023-02-04T12:54:53;101451.28;;;22.18;25.11
51999;BME280;38015;50.924;11.598;2023-02-04T12:57:25;101453.01;;;22.30;24.92
51999;BME280;38015;50.924;11.598;2023-02-04T12:59:56;101450.50;;;22.28;24.95
51999;BME280;38015;50.924;11.598;2023-02-04T13:02:25;101456.67;;;22.23;25.03
51999;BME280;38015;50.924;11.598;2023-02-04T13:04:55;101455.84;;;22.19;25.11
51999;BME280;38015;50.924;11.598;2023-02-04T13:07:26;101455.02;;;22.17;25.11
51999;BME280;38015;50.924;11.598;2023-02-04T13:09:56;101453.92;;;22.24;25.03
51999;BME280;38015;50.924;11.598;2023-02-04T13:12:27;101456.60;;;22.26;24.98